createdAt,value
2023-04-11T08:40:07.508Z,99666.19
2023-04-11T08:43:00.296Z,99705.47
2023-04-11T08:45:46.214Z,99662.44
2023-04-11T08:48:33.113Z,99670.84
2023-04-11T08:51:27.076Z,99646.97
2023-04-11T08:54:14.930Z,99626.66
2023-04-11T08:57:00.612Z,99696.03
2023-04-11T08:59:53.527Z,99636.41
2023-04-11T09:03:03.810Z,99574.53
2023-04-11T09:05:50.455Z,99681.53
2023-04-11T09:08:39.528Z,99623.09
2023-04-11T09:11:27.238Z,99632.34
2023-04-11T09:14:13.318Z,99633.97
2023-04-11T09:17:01.206Z,99623.41
2023-04-11T09:19:49.145Z,99663.91
2023-04-11T09:22:36.245Z,99616.06
2023-04-11T09:25:23.310Z,99532.91
2023-04-11T09:28:11.102Z,99612.69
2023-04-11T09:30:56.887Z,99564.72
2023-04-11T09:33:58.892Z,99601.97
2023-04-11T09:36:54.655Z,99577.66
2023-04-11T09:39:41.419Z,99528.91
2023-04-11T09:42:27.891Z,99570.16
2023-04-11T09:45:18.935Z,99561.25
2023-04-11T09:48:05.584Z,99627.47
2023-04-11T09:50:52.174Z,99556.31
2023-04-11T09:53:37.895Z,99513.16
2023-04-11T09:56:26.711Z,99628.84
2023-04-11T09:59:15.856Z,99554.16
2023-04-11T10:02:04.363Z,99579.38
2023-04-11T10:04:51.541Z,99542.34
2023-04-11T10:08:00.765Z,99517.81
2023-04-11T10:10:46.664Z,99526.34
2023-04-11T10:13:43.753Z,99562.72
2023-04-11T10:16:34.131Z,99534.50
2023-04-11T10:19:20.640Z,99569.38
2023-04-11T10:22:06.915Z,99546.31
2023-04-11T10:25:28.929Z,99592.75
2023-04-11T10:28:29.822Z,99547.72
2023-04-11T10:31:17.792Z,99476.50
2023-04-11T10:34:21.390Z,99527.06
2023-04-11T10:37:10.678Z,99515.25
2023-04-11T10:40:04.264Z,99561.63
2023-04-11T10:42:50.679Z,99542.00
2023-04-11T10:45:40.036Z,99553.38
2023-04-11T10:48:26.262Z,99486.31
2023-04-11T10:51:27.087Z,99502.94
2023-04-11T10:54:27.059Z,99507.75
2023-04-11T10:57:16.041Z,99563.38
2023-04-11T11:00:10.881Z,99551.28
2023-04-11T11:02:57.444Z,99489.06
2023-04-11T11:05:44.024Z,99475.06
2023-04-11T11:08:41.867Z,99554.41
2023-04-11T11:11:28.200Z,99518.97
2023-04-11T11:14:28.414Z,99502.69
2023-04-11T11:17:16.296Z,99541.78
2023-04-11T11:20:02.003Z,99535.47
2023-04-11T11:23:01.773Z,99534.34
2023-04-11T11:25:55.283Z,99529.06
2023-04-11T11:28:48.830Z,99467.50
2023-04-11T11:31:39.640Z,99452.97
2023-04-11T11:34:31.146Z,99410.31
2023-04-11T11:37:17.117Z,99462.53
2023-04-11T11:40:09.368Z,99487.44
2023-04-11T11:42:55.030Z,99477.88
2023-04-11T11:45:41.811Z,99460.59
2023-04-11T11:48:27.487Z,99400.69
2023-04-11T11:51:14.744Z,99476.75
2023-04-11T11:54:09.749Z,99483.44
2023-04-11T11:56:56.446Z,99536.28
2023-04-11T11:59:42.755Z,99487.56
2023-04-11T12:02:29.734Z,99482.50
2023-04-11T12:05:16.656Z,99480.56
2023-04-11T12:08:06.193Z,99461.41
2023-04-11T12:10:52.786Z,99473.44
2023-04-11T12:13:39.269Z,99522.38
2023-04-11T12:16:25.910Z,99442.53
2023-04-11T12:19:13.460Z,99474.06
2023-04-11T12:21:59.520Z,99502.84
2023-04-11T12:24:46.656Z,99482.22
2023-04-11T12:27:36.841Z,99438.28
2023-04-11T12:30:23.247Z,99414.31
2023-04-11T12:33:09.527Z,99468.25
2023-04-11T12:35:56.431Z,99450.16
2023-04-11T12:38:42.577Z,99417.03
2023-04-11T12:41:32.517Z,99382.84
2023-04-11T12:44:19.001Z,99405.78
2023-04-11T12:47:05.883Z,99429.44
2023-04-11T12:49:51.789Z,99393.09
2023-04-11T12:52:38.577Z,99384.84
2023-04-11T12:55:24.477Z,99455.94
2023-04-11T12:58:10.609Z,99418.22
2023-04-11T13:00:56.409Z,99449.50
2023-04-11T13:03:42.703Z,99374.56
2023-04-11T13:06:30.187Z,99443.66
2023-04-11T13:09:16.902Z,99506.81
2023-04-11T13:12:03.219Z,99419.31
2023-04-11T13:14:49.157Z,99464.38
2023-04-11T13:17:35.258Z,99415.44
2023-04-11T13:20:22.784Z,99517.75
2023-04-11T13:23:09.919Z,99439.38
2023-04-11T13:25:57.539Z,99515.88
2023-04-11T13:28:43.340Z,99383.91
2023-04-11T13:31:29.806Z,99430.34
2023-04-11T13:34:16.651Z,99428.94
2023-04-11T13:37:02.860Z,99479.75
2023-04-11T13:39:48.809Z,99470.53
2023-04-11T13:42:35.403Z,99414.66
2023-04-11T13:45:21.240Z,99486.78
2023-04-11T13:48:07.824Z,99527.03
2023-04-11T13:50:57.620Z,99407.03
2023-04-11T13:53:46.730Z,99418.59
2023-04-11T13:56:36.508Z,99468.91
2023-04-11T13:59:24.065Z,99411.78
2023-04-11T14:02:10.146Z,99493.63
2023-04-11T14:04:56.380Z,99441.03
2023-04-11T14:07:42.278Z,99439.06
2023-04-11T14:10:28.512Z,99479.09
2023-04-11T14:13:14.304Z,99543.25
2023-04-11T14:16:08.546Z,99520.00
2023-04-11T14:18:55.395Z,99486.13
2023-04-11T14:21:41.710Z,99490.34
2023-04-11T14:24:27.971Z,99493.28
2023-04-11T14:27:14.835Z,99506.66
2023-04-11T14:30:00.664Z,99558.13
2023-04-11T14:32:47.148Z,99530.84
2023-04-11T14:35:33.115Z,99498.78
2023-04-11T14:38:19.749Z,99555.28
2023-04-11T14:41:06.501Z,99570.63
2023-04-11T14:43:52.496Z,99482.25
2023-04-11T14:46:38.618Z,99533.25
2023-04-11T14:49:25.935Z,99517.81
2023-04-11T14:52:11.930Z,99584.34
2023-04-11T14:54:58.269Z,99476.81
2023-04-11T14:57:46.628Z,99519.63
2023-04-11T15:00:33.021Z,99511.75
2023-04-11T15:03:19.262Z,99593.72
2023-04-11T15:06:06.862Z,99477.63
2023-04-11T15:08:52.619Z,99524.47
2023-04-11T15:11:39.202Z,99536.22
2023-04-11T15:14:29.516Z,99577.78
2023-04-11T15:17:15.956Z,99597.44
2023-04-11T15:20:01.520Z,99599.22
2023-04-11T15:22:48.467Z,99561.19
2023-04-11T15:25:34.442Z,99561.66
2023-04-11T15:28:21.601Z,99566.47
2023-04-11T15:31:09.471Z,99564.69
2023-04-11T15:33:59.764Z,99573.88
2023-04-11T15:36:47.189Z,99614.81
2023-04-11T15:39:33.319Z,99523.75
2023-04-11T15:42:19.084Z,99536.16
2023-04-11T15:45:05.536Z,99606.13
2023-04-11T15:47:51.447Z,99541.63
2023-04-11T15:50:37.809Z,99570.19
2023-04-11T15:53:24.457Z,99569.22
2023-04-11T15:56:11.392Z,99524.75
2023-04-11T15:58:57.354Z,99607.09
2023-04-11T16:01:44.027Z,99606.28
2023-04-11T16:04:30.666Z,99540.72
2023-04-11T16:07:20.270Z,99547.47
2023-04-11T16:10:08.639Z,99535.41
2023-04-11T16:12:54.652Z,99532.81
2023-04-11T16:15:40.448Z,99518.00
2023-04-11T16:18:26.513Z,99594.22
2023-04-11T16:21:16.331Z,99532.81
2023-04-11T16:24:02.654Z,99602.91
2023-04-11T16:26:48.755Z,99504.47
2023-04-11T16:29:36.258Z,99526.25
2023-04-11T16:32:23.225Z,99573.25
2023-04-11T16:35:09.650Z,99538.47
2023-04-11T16:37:55.561Z,99465.22
2023-04-11T16:40:41.966Z,99522.22
2023-04-11T16:43:27.737Z,99474.88
2023-04-11T16:46:14.779Z,99534.28
2023-04-11T16:49:01.065Z,99601.28
2023-04-11T16:51:47.557Z,99541.19
2023-04-11T16:54:34.346Z,99495.47
2023-04-11T16:57:29.284Z,99534.28
2023-04-11T17:00:16.820Z,99520.28
2023-04-11T17:03:03.587Z,99569.91
2023-04-11T17:05:54.874Z,99558.59
2023-04-11T17:08:42.969Z,99539.28
2023-04-11T17:11:28.899Z,99467.78
2023-04-11T17:14:20.801Z,99486.28
2023-04-11T17:17:10.409Z,99577.59
2023-04-11T17:20:09.866Z,99507.03
2023-04-11T17:22:58.238Z,99548.09
2023-04-11T17:25:58.406Z,99528.28
2023-04-11T17:28:44.895Z,99509.13
2023-04-11T17:58:39.314Z,99648.66
2023-04-11T18:24:14.968Z,99664.84
2023-04-11T18:27:12.891Z,99570.00
2023-04-11T18:30:13.136Z,99552.09
2023-04-11T18:33:09.407Z,99565.47
2023-04-11T18:36:04.229Z,99697.06
2023-04-11T18:38:54.851Z,99692.06
2023-04-11T18:41:48.416Z,99644.94
2023-04-11T18:44:44.690Z,99634.78
2023-04-11T18:47:48.429Z,99658.19
2023-04-11T18:50:43.409Z,99632.06
2023-04-11T18:53:32.531Z,99708.19
2023-04-11T18:56:27.991Z,99594.81
2023-04-11T18:59:18.444Z,99662.22
2023-04-11T19:02:05.865Z,99641.56
2023-04-11T19:04:55.633Z,99629.66
2023-04-11T19:07:46.352Z,99565.13
2023-04-11T19:10:32.756Z,99708.66
2023-04-11T19:13:19.899Z,99626.28
2023-04-11T19:16:07.692Z,99642.06
2023-04-11T19:18:53.782Z,99620.81
2023-04-11T19:21:40.678Z,99635.81
2023-04-11T19:24:26.918Z,99576.28
2023-04-11T19:27:14.145Z,99566.31
2023-04-11T19:30:00.613Z,99552.94
2023-04-11T19:32:48.043Z,99595.34
2023-04-11T19:35:34.413Z,99677.25
2023-04-11T19:38:22.006Z,99602.75
2023-04-11T19:41:11.979Z,99678.22
2023-04-11T19:43:59.070Z,99558.91
2023-04-11T19:46:46.521Z,99640.31
2023-04-11T19:49:33.000Z,99689.00
2023-04-11T19:52:19.171Z,99614.81
2023-04-11T19:55:06.326Z,99627.56
2023-04-11T19:57:52.284Z,99652.72
2023-04-11T20:00:38.838Z,99571.56
2023-04-11T20:03:25.721Z,99560.28
2023-04-11T20:06:13.934Z,99648.78
2023-04-11T20:09:04.251Z,99656.94
2023-04-11T20:11:51.221Z,99650.06
2023-04-11T20:14:38.502Z,99704.25
2023-04-11T20:17:26.182Z,99616.97
2023-04-11T20:20:14.520Z,99577.72
2023-04-11T20:23:04.994Z,99583.19
2023-04-11T20:25:51.203Z,99580.09
2023-04-11T20:28:38.211Z,99649.97
2023-04-11T20:31:25.985Z,99599.03
2023-04-11T20:34:12.343Z,99583.69
2023-04-11T20:37:00.915Z,99633.69
2023-04-11T20:39:51.690Z,99619.94
2023-04-11T20:42:42.845Z,99676.22
2023-04-11T20:45:31.126Z,99590.41
2023-04-11T20:48:17.162Z,99649.44
2023-04-11T20:51:04.074Z,99619.28
2023-04-11T20:53:49.998Z,99703.63
2023-04-11T20:56:36.723Z,99647.13
2023-04-11T20:59:22.616Z,99653.09
2023-04-11T21:02:08.633Z,99678.47
2023-04-11T21:04:55.652Z,99658.91
2023-04-11T21:07:42.316Z,99724.88
2023-04-11T21:10:28.383Z,99724.69
2023-04-11T21:13:14.365Z,99684.38
2023-04-11T21:16:00.165Z,99725.19
2023-04-11T21:18:46.519Z,99728.75
2023-04-11T21:21:33.507Z,99736.31
2023-04-11T21:24:19.778Z,99680.84
2023-04-11T21:27:05.915Z,99635.47
2023-04-11T21:29:52.386Z,99637.72
2023-04-11T21:32:39.520Z,99705.03
2023-04-11T21:35:26.164Z,99729.25
2023-04-11T21:38:12.578Z,99694.03
2023-04-11T21:40:59.054Z,99732.75
2023-04-11T21:43:44.659Z,99730.84
2023-04-11T21:46:32.350Z,99670.63
2023-04-11T21:49:21.404Z,99734.09
2023-04-11T21:52:08.874Z,99732.63
2023-04-11T21:54:54.678Z,99679.66
2023-04-11T21:57:41.196Z,99675.16
2023-04-11T22:00:27.585Z,99719.22
2023-04-11T22:03:18.075Z,99724.69
2023-04-11T22:06:04.231Z,99734.34
2023-04-11T22:08:51.466Z,99743.41
2023-04-11T22:11:36.991Z,99709.31
2023-04-11T22:14:27.159Z,99703.22
2023-04-11T22:17:13.239Z,99681.06
2023-04-11T22:19:59.606Z,99737.88
2023-04-11T22:22:45.403Z,99708.13
2023-04-11T22:25:33.056Z,99674.22
2023-04-11T22:28:20.424Z,99661.56
2023-04-11T22:31:06.715Z,99674.47
2023-04-11T22:33:52.673Z,99753.09
2023-04-11T22:36:38.765Z,99746.81
2023-04-11T22:39:25.515Z,99669.00
2023-04-11T22:42:11.732Z,99743.91
2023-04-11T22:44:57.403Z,99649.91
2023-04-11T22:47:47.318Z,99751.78
2023-04-11T22:50:37.358Z,99751.78
2023-04-11T22:53:25.084Z,99738.84
2023-04-11T22:56:11.452Z,99643.59
2023-04-11T22:58:57.546Z,99710.72
2023-04-11T23:01:44.749Z,99744.19
2023-04-11T23:04:32.387Z,99749.03
2023-04-11T23:07:18.431Z,99718.69
2023-04-11T23:10:06.198Z,99703.41
2023-04-11T23:12:52.359Z,99672.22
2023-04-11T23:15:39.497Z,99703.34
2023-04-11T23:18:25.378Z,99725.38
2023-04-11T23:21:13.327Z,99728.59
2023-04-11T23:23:59.372Z,99674.34
2023-04-11T23:26:45.305Z,99741.03
2023-04-11T23:29:31.322Z,99698.19
2023-04-11T23:32:19.086Z,99743.72
2023-04-11T23:35:06.394Z,99729.50
2023-04-11T23:37:52.761Z,99695.44
2023-04-11T23:40:38.767Z,99660.56
2023-04-11T23:43:25.123Z,99724.53
2023-04-11T23:46:11.887Z,99699.50
2023-04-11T23:48:58.013Z,99739.34
2023-04-11T23:51:43.828Z,99733.88
2023-04-11T23:54:30.434Z,99628.78
2023-04-11T23:57:17.196Z,99685.75
